24 Datensätze sind 1 Tag. Aufzeichnung ab 07. Oktober 2014.
Werte (Summe von Anzahl und Position darf nicht größer sein als mögliche Datensätze).
Anzahl:
Position: Summe:
\ 24662 Datensätze möglich.
  20 letzte Aufzeichnungen
gezeigte Daten 20 ab Position 1    Summe der Auswahl = 21
16.10.2017 / 01:27 Uhr bis 16.10.2017 / 20:26 Uhr
Regenmenge 0 Liter

Datum/Zeit Temp. Taupunkt Luftfeuchte Wind speed Wind böhe Wind Temp. Regen Summe Luftdruck
16.10.2017 | 21:26 Uhr 12.8C 9.4C 80% 0.0 kmh 0.0kmh 10.1C 222.8mm 1006.2236mBar/hPa
16.10.2017 | 20:26 Uhr 13.3C 9.9C 80% 0.0 kmh 0.0kmh 10.6C 222.8mm 1006.5361mBar/hPa
16.10.2017 | 19:26 Uhr 14.1C 10.3C 78% 0.0 kmh 0.0kmh 11.2C 222.8mm 1006.5361mBar/hPa
16.10.2017 | 18:26 Uhr 15.1C 10.9C 76% 0.0 kmh 0.0kmh 12.1C 222.8mm 1006.4111mBar/hPa
16.10.2017 | 17:26 Uhr 16.3C 11.5C 73% 0.0 kmh 0.0kmh 13.2C 222.8mm 1006.5361mBar/hPa
16.10.2017 | 16:26 Uhr 18.1C 12.3C 69% 0.0 kmh 0.0kmh 15.0C 222.8mm 1005.9736mBar/hPa
16.10.2017 | 15:26 Uhr 20.0C 13.0C 64% 0.0 kmh 0.0kmh 18.7C 222.8mm 1005.6611mBar/hPa
16.10.2017 | 14:26 Uhr 21.0C 13.2C 61% 0.0 kmh 0.0kmh 22.9C 222.8mm 1005.4111mBar/hPa
16.10.2017 | 13:26 Uhr 20.9C 13.1C 61% 2.1 kmh 0.7kmh 24.5C 222.8mm 1005.5986mBar/hPa
16.10.2017 | 12:26 Uhr 20.6C 13.8C 65% 0.0 kmh 1.1kmh 22.1C 222.8mm 1006.1611mBar/hPa
16.10.2017 | 11:28 Uhr 19.9C 13.4C 66% 9.1 kmh 1.0kmh 23.6C 222.8mm 1006.4736mBar/hPa
16.10.2017 | 10:26 Uhr 18.7C 13.1C 70% 0.0 kmh 0.4kmh 19.5C 222.8mm 1006.5361mBar/hPa
16.10.2017 | 09:26 Uhr 17.9C 12.4C 70% 0.0 kmh 0.1kmh 17.9C 222.8mm 1006.7236mBar/hPa
16.10.2017 | 08:27 Uhr 17.1C 12.8C 76% 0.0 kmh 0.0kmh 14.2C 222.8mm 1006.0986mBar/hPa
16.10.2017 | 07:26 Uhr 14.0C 11.2C 83% 0.0 kmh 0.0kmh 10.5C 222.8mm 1006.0361mBar/hPa
16.10.2017 | 06:26 Uhr 9.5C 6.9C 84% 0.0 kmh 0.0kmh 7.4C 222.8mm 1005.9736mBar/hPa
16.10.2017 | 05:26 Uhr 9.2C 6.5C 83% 0.0 kmh 0.0kmh 7.0C 222.8mm 1005.6611mBar/hPa
16.10.2017 | 04:26 Uhr 9.6C 6.9C 83% 0.0 kmh 0.0kmh 7.0C 222.8mm 1005.5361mBar/hPa
16.10.2017 | 03:26 Uhr 9.9C 7.0C 82% 0.0 kmh 0.0kmh 7.0C 222.8mm 1005.7861mBar/hPa
16.10.2017 | 02:26 Uhr 10.5C 7.6C 82% 0.0 kmh 0.0kmh 7.8C 222.8mm 1006.0361mBar/hPa